Time;durP1;ratioP1;P1;durP2;ratioP2;P2;SDS_P1;SDS_P2;PMS_P1;PMS_P2;Temp;Humidity;BMP_temperature;BMP_pressure;BME280_temperature;BME280_humidity;BME280_pressure;Samples;Min_cycle;Max_cycle;Signal;HPM_P1;HPM_P2
2022/10/14 00:00:28;;;;;;;14.18;8.13;;;;;;;7.21;70.12;100248.25;5087894;28;21777;-59
2022/10/14 00:02:54;;;;;;;14.55;7.15;;;;;;;7.56;70.16;100309.91;5088075;28;20058;-57
2022/10/14 00:05:22;;;;;;;10.75;6.68;;;;;;;7.54;70.22;100309.06;5087640;28;20048;-56
2022/10/14 00:07:47;;;;;;;11.23;7.22;;;;;;;7.53;70.34;100309.97;5086839;28;20108;-57
2022/10/14 00:10:14;;;;;;;14.18;7.10;;;;;;;7.47;69.86;100313.47;5090344;28;20040;-56
2022/10/14 00:12:40;;;;;;;13.05;7.10;;;;;;;7.49;69.88;100316.03;5089280;28;20031;-56
2022/10/14 00:15:06;;;;;;;14.05;7.60;;;;;;;7.38;70.27;100298.03;5089445;28;20032;-55
2022/10/14 00:17:32;;;;;;;15.30;7.53;;;;;;;7.46;70.44;100321.25;5089636;28;20036;-57
2022/10/14 00:19:59;;;;;;;11.52;6.53;;;;;;;7.46;70.28;100314.34;5071107;28;20054;-57
2022/10/14 00:22:25;;;;;;;12.48;6.93;;;;;;;7.45;70.16;100319.53;5089294;28;20032;-57
2022/10/14 00:24:53;;;;;;;10.70;6.70;;;;;;;7.45;70.22;100317.81;5055312;28;20518;-56
2022/10/14 00:27:19;;;;;;;12.93;6.82;;;;;;;7.40;70.25;100306.66;5089056;28;20036;-53
2022/10/14 00:29:45;;;;;;;14.57;6.88;;;;;;;7.41;70.15;100310.09;5072718;28;20059;-57
2022/10/14 00:32:11;;;;;;;10.88;6.32;;;;;;;7.35;70.63;100308.44;5088580;28;20453;-55
2022/10/14 00:34:36;;;;;;;12.73;6.75;;;;;;;7.28;70.61;100300.75;5100908;28;20047;-56
2022/10/14 00:37:03;;;;;;;14.50;6.97;;;;;;;7.32;70.53;100308.50;5091198;28;20044;-58
2022/10/14 00:39:29;;;;;;;13.68;6.60;;;;;;;7.29;70.71;100303.31;5056436;28;20454;-56
2022/10/14 00:41:56;;;;;;;11.05;6.50;;;;;;;6.98;70.46;100263.16;5090570;28;20039;-57
2022/10/14 00:44:22;;;;;;;11.30;6.32;;;;;;;7.21;70.99;100307.75;5090699;28;20050;-53
2022/10/14 00:46:49;;;;;;;11.98;6.90;;;;;;;7.00;70.98;100271.78;5092258;28;20071;-56
2022/10/14 00:49:19;;;;;;;11.68;6.53;;;;;;;7.20;71.00;100306.03;5088609;28;20048;-56
2022/10/14 00:52:18;;;;;;;11.10;6.00;;;;;;;7.19;70.85;100306.88;5088158;28;20059;-56
2022/10/14 00:54:49;;;;;;;10.43;5.97;;;;;;;7.19;71.12;100307.75;5081978;28;20036;-55
2022/10/14 00:57:15;;;;;;;8.98;6.03;;;;;;;6.96;71.04;100263.16;5088761;28;20036;-58
2022/10/14 00:59:42;;;;;;;12.05;5.90;;;;;;;7.23;71.07;100309.41;5069118;28;20770;-55
2022/10/14 01:02:09;;;;;;;12.95;5.97;;;;;;;7.24;70.61;100310.28;5086458;28;20126;-57
2022/10/14 01:04:38;;;;;;;10.05;5.88;;;;;;;7.04;70.67;100284.63;5087578;28;20567;-56
2022/10/14 01:07:12;;;;;;;9.85;5.38;;;;;;;7.21;70.43;100311.19;5088902;28;20044;-54
2022/10/14 01:09:47;;;;;;;10.75;5.97;;;;;;;7.19;71.00;100305.16;5087141;28;20044;-56
2022/10/14 01:12:36;;;;;;;9.80;5.53;;;;;;;7.02;70.97;100288.97;5069469;28;20054;-56
2022/10/14 01:15:17;;;;;;;10.32;5.55;;;;;;;7.17;70.51;100313.81;5071359;28;20094;-57
2022/10/14 01:18:16;;;;;;;7.53;5.10;;;;;;;7.11;70.96;100304.41;5067358;28;20456;-56
2022/10/14 01:21:11;;;;;;;11.82;5.25;;;;;;;7.06;70.85;100307.91;5084487;28;20613;-56
2022/10/14 01:23:40;;;;;;;14.18;5.70;;;;;;;6.98;70.89;100302.78;5077823;28;20450;-57
2022/10/14 01:26:24;;;;;;;11.95;5.25;;;;;;;6.96;70.98;100301.13;5083946;28;20039;-58
2022/10/14 01:29:27;;;;;;;8.57;5.03;;;;;;;6.87;71.36;100302.03;5103425;28;20040;-57
2022/10/14 01:32:03;;;;;;;11.50;5.40;;;;;;;6.78;71.47;100296.97;5085903;28;20437;-55
2022/10/14 01:34:37;;;;;;;9.90;5.35;;;;;;;6.66;72.22;100305.69;5058011;28;20036;-57
2022/10/14 01:37:16;;;;;;;8.90;5.47;;;;;;;6.59;71.94;100295.44;5086780;28;20040;-56
2022/10/14 01:39:46;;;;;;;11.43;5.65;;;;;;;6.29;72.30;100261.22;5070162;28;20028;-56
2022/10/14 01:42:22;;;;;;;8.07;4.95;;;;;;;6.36;72.95;100295.59;5089822;28;20031;-54
2022/10/14 01:45:05;;;;;;;9.65;5.32;;;;;;;6.28;73.03;100295.63;5086411;28;20088;-56
2022/10/14 01:47:32;;;;;;;14.27;5.88;;;;;;;6.01;73.33;100262.28;5080831;28;20043;-58
2022/10/14 01:50:13;;;;;;;9.38;5.55;;;;;;;6.10;74.41;100305.25;5052941;28;20043;-55
2022/10/14 01:52:47;;;;;;;9.38;5.20;;;;;;;5.92;74.09;100286.41;5083616;28;20089;-56
2022/10/14 01:55:17;;;;;;;10.25;5.70;;;;;;;5.92;74.21;100298.47;5082558;28;20040;-57
2022/10/14 01:57:44;;;;;;;9.85;5.82;;;;;;;5.90;75.24;100295.03;5069806;28;20036;-56
2022/10/14 02:00:11;;;;;;;10.02;5.68;;;;;;;5.85;74.82;100289.03;5076197;28;20048;-56
2022/10/14 02:02:42;;;;;;;8.70;5.30;;;;;;;5.83;75.17;100294.19;5086026;28;20046;-57
2022/10/14 02:05:15;;;;;;;11.88;5.78;;;;;;;5.53;75.42;100245.34;5086908;28;20426;-58
2022/10/14 02:07:49;;;;;;;11.02;6.13;;;;;;;5.73;76.17;100291.66;5087631;28;20089;-56
2022/10/14 02:10:28;;;;;;;11.60;5.47;;;;;;;5.55;75.99;100262.50;5069155;28;20458;-56
2022/10/14 02:13:05;;;;;;;13.23;6.20;;;;;;;5.71;76.78;100288.22;5071131;28;20135;-59
2022/10/14 02:16:13;;;;;;;12.45;6.10;;;;;;;5.71;76.76;100293.38;5086970;28;20071;-57
2022/10/14 02:19:07;;;;;;;11.82;5.90;;;;;;;5.67;76.78;100300.28;5052234;28;20049;-57
2022/10/14 02:22:23;;;;;;;12.77;5.95;;;;;;;5.61;77.51;100295.16;5090365;28;20060;-55
2022/10/14 02:25:36;;;;;;;12.48;6.70;;;;;;;5.51;77.51;100298.63;5082730;28;20525;-59
2022/10/14 02:28:03;;;;;;;11.55;5.53;;;;;;;5.42;77.87;100294.38;5064877;28;20048;-56
2022/10/14 02:30:32;;;;;;;12.98;6.55;;;;;;;5.15;78.31;100257.50;5086336;28;20051;-53
2022/10/14 02:32:59;;;;;;;11.40;6.35;;;;;;;5.29;78.82;100292.69;5070595;28;20060;-57
2022/10/14 02:35:27;;;;;;;12.35;7.22;;;;;;;5.19;79.04;100297.88;5082325;28;20036;-56
2022/10/14 02:37:54;;;;;;;15.70;7.32;;;;;;;5.14;79.57;100300.47;5070284;28;20050;-55
2022/10/14 02:40:29;;;;;;;14.13;7.20;;;;;;;5.08;80.16;100297.91;5069020;28;20039;-56
2022/10/14 02:42:58;;;;;;;16.05;8.35;;;;;;;4.75;80.40;100255.06;5087596;28;20507;-55
2022/10/14 02:45:26;;;;;;;14.48;7.82;;;;;;;4.90;80.60;100293.66;5084946;28;20036;-57
2022/10/14 02:47:56;;;;;;;17.73;7.80;;;;;;;4.59;80.81;100246.50;5071022;28;20051;-55
2022/10/14 02:50:22;;;;;;;19.65;8.30;;;;;;;4.88;81.14;100305.69;5092233;28;20074;-55
2022/10/14 02:52:50;;;;;;;15.90;8.60;;;;;;;4.84;81.98;100298.81;5069338;28;20411;-54
2022/10/14 02:55:16;;;;;;;19.33;8.93;;;;;;;4.81;82.27;100300.56;5068352;28;20036;-54
2022/10/14 02:57:43;;;;;;;19.45;9.15;;;;;;;4.79;82.48;100308.28;5084742;28;20113;-56
2022/10/14 03:00:10;;;;;;;19.38;9.98;;;;;;;4.76;82.62;100303.13;5078273;28;20507;-57
2022/10/14 03:02:36;;;;;;;16.35;8.27;;;;;;;4.71;82.55;100307.41;5086387;28;20040;-55
2022/10/14 03:05:04;;;;;;;16.10;7.57;;;;;;;4.65;83.19;100310.88;5086498;28;20465;-58
2022/10/14 03:07:30;;;;;;;16.27;8.35;;;;;;;4.62;82.89;100305.72;5103136;28;20130;-55
2022/10/14 03:10:01;;;;;;;20.63;8.88;;;;;;;4.25;83.44;100248.22;5096221;28;20044;-56
2022/10/14 03:12:30;;;;;;;18.30;7.93;;;;;;;4.56;83.25;100302.25;5087738;28;20041;-58
2022/10/14 03:14:56;;;;;;;16.83;8.35;;;;;;;4.53;83.91;100308.28;5087361;28;20043;-58
2022/10/14 03:17:24;;;;;;;19.88;8.10;;;;;;;4.54;84.21;100299.72;5074488;28;20046;-55
2022/10/14 03:19:50;;;;;;;16.25;8.18;;;;;;;4.47;83.76;100291.97;5088523;28;20130;-59
2022/10/14 03:22:16;;;;;;;17.80;7.78;;;;;;;4.39;84.06;100291.13;5090507;28;20040;-58
2022/10/14 03:24:44;;;;;;;19.98;7.53;;;;;;;4.14;84.67;100256.78;5089408;28;20040;-58
2022/10/14 03:27:35;;;;;;;21.35;8.23;;;;;;;4.32;84.75;100295.41;5095987;28;20046;-59
2022/10/14 03:30:07;;;;;;;19.60;8.18;;;;;;;4.24;85.39;100303.09;5090811;28;20048;-58
2022/10/14 03:32:37;;;;;;;24.13;9.02;;;;;;;4.18;86.20;100304.84;5073844;28;20044;-57
2022/10/14 03:35:21;;;;;;;18.35;8.50;;;;;;;4.14;86.83;100303.09;5091203;28;20089;-58
2022/10/14 03:37:52;;;;;;;24.60;8.40;;;;;;;4.09;86.89;100297.09;5089821;28;20085;-57
2022/10/14 03:40:20;;;;;;;;;;;;;;;4.06;87.04;100297.09;5072235;28;20044;-56
2022/10/14 03:42:46;;;;;;;14.27;6.95;;;;;;;3.80;87.51;100263.59;5090524;28;20347;-56
2022/10/14 03:45:14;;;;;;;16.80;8.10;;;;;;;3.97;87.71;100287.66;5072800;28;20076;-58
2022/10/14 03:47:40;;;;;;;16.60;8.07;;;;;;;3.84;87.99;100279.03;5073485;28;20032;-58
2022/10/14 03:50:06;;;;;;;20.63;8.10;;;;;;;3.98;88.35;100288.50;5090644;28;20050;-54
2022/10/14 03:52:39;;;;;;;19.30;8.30;;;;;;;3.99;88.80;100288.50;5072381;28;20039;-57
2022/10/14 03:55:11;;;;;;;16.38;7.95;;;;;;;3.94;89.23;100286.75;5090530;28;20051;-56
2022/10/14 03:57:39;;;;;;;19.35;8.40;;;;;;;3.93;89.76;100288.47;5074106;28;20047;-56
2022/10/14 04:00:06;;;;;;;20.33;8.27;;;;;;;3.94;89.59;100286.75;5073057;28;20039;-56
2022/10/14 04:02:41;;;;;;;16.52;8.00;;;;;;;3.98;89.74;100288.50;5078125;28;20060;-56
2022/10/14 04:05:32;;;;;;;16.02;7.97;;;;;;;4.02;89.87;100285.09;5059443;28;20051;-58
2022/10/14 04:08:02;;;;;;;16.80;8.43;;;;;;;4.08;89.45;100282.53;5069264;28;20036;-58
2022/10/14 04:10:28;;;;;;;23.65;8.63;;;;;;;4.18;89.72;100289.41;5069911;28;20048;-56
2022/10/14 04:12:55;;;;;;;29.77;7.80;;;;;;;4.24;89.33;100277.38;5084484;28;20043;-56
2022/10/14 04:15:28;;;;;;;13.45;7.32;;;;;;;4.33;89.18;100289.41;5089732;28;20075;-57
2022/10/14 04:18:17;;;;;;;19.02;8.18;;;;;;;4.30;88.72;100284.25;5086572;28;20143;-57
2022/10/14 04:20:44;;;;;;;17.55;8.10;;;;;;;4.26;89.04;100288.53;5089162;28;20098;-57
2022/10/14 04:23:12;;;;;;;17.70;7.72;;;;;;;4.06;88.72;100251.66;5089410;28;20040;-59
2022/10/14 04:25:40;;;;;;;15.90;8.07;;;;;;;4.21;88.99;100287.69;5089466;28;20468;-55
2022/10/14 04:28:06;;;;;;;18.88;8.05;;;;;;;4.25;89.14;100283.38;5088932;28;20089;-56
2022/10/14 04:30:49;;;;;;;18.02;8.20;;;;;;;4.24;89.20;100279.94;5074050;28;20125;-57
2022/10/14 04:33:22;;;;;;;16.05;8.20;;;;;;;4.31;89.21;100287.69;5092509;28;20518;-58
2022/10/14 04:35:48;;;;;;;19.52;8.43;;;;;;;4.16;88.41;100257.66;5072986;28;20036;-58
2022/10/14 04:38:21;;;;;;;14.30;8.00;;;;;;;4.34;88.76;100291.13;5064222;28;20100;-58
2022/10/14 04:40:54;;;;;;;11.95;7.03;;;;;;;4.37;88.19;100298.84;5094239;28;20127;-55
2022/10/14 04:43:20;;;;;;;12.55;7.05;;;;;;;4.09;88.58;100245.63;5088977;28;20039;-57
2022/10/14 04:45:46;;;;;;;16.60;7.70;;;;;;;4.40;88.51;100288.53;5088217;28;20143;-57
2022/10/14 04:48:20;;;;;;;18.13;7.38;;;;;;;4.43;87.86;100295.41;5087285;28;20047;-57
2022/10/14 04:50:50;;;;;;;20.13;8.13;;;;;;;4.49;87.84;100296.28;5070793;28;20047;-57
2022/10/14 04:53:34;;;;;;;15.15;7.88;;;;;;;4.47;87.55;100287.69;5074143;28;20541;-58
2022/10/14 04:56:08;;;;;;;13.98;7.55;;;;;;;4.58;87.25;100287.69;5072553;28;20036;-56
2022/10/14 04:58:40;;;;;;;14.13;7.30;;;;;;;4.60;86.87;100293.69;5072100;28;20067;-58
2022/10/14 05:01:07;;;;;;;19.83;7.38;;;;;;;4.50;86.58;100263.69;5087874;28;20047;-55
2022/10/14 05:03:37;;;;;;;20.55;8.30;;;;;;;4.71;86.11;100285.97;5071857;28;20060;-56
2022/10/14 05:06:03;;;;;;;15.07;8.13;;;;;;;4.79;86.24;100294.53;5050440;28;20163;-61
2022/10/14 05:08:29;;;;;;;14.18;7.88;;;;;;;4.93;85.43;100297.94;5088174;28;20048;-56
2022/10/14 05:10:59;;;;;;;16.35;7.43;;;;;;;5.02;85.43;100298.78;5088150;28;20047;-59
2022/10/14 05:13:40;;;;;;;15.05;7.57;;;;;;;5.18;84.67;100297.03;5073652;28;20055;-56
2022/10/14 05:16:07;;;;;;;17.13;7.85;;;;;;;5.44;83.56;100295.22;5071755;28;20081;-59
2022/10/14 05:18:34;;;;;;;12.10;7.18;;;;;;;5.78;83.02;100297.66;5069171;28;20066;-57
2022/10/14 05:21:11;;;;;;;15.52;7.20;;;;;;;6.25;80.94;100285.34;5087485;28;20193;-58
2022/10/14 05:23:51;;;;;;;10.10;6.43;;;;;;;6.68;78.55;100256.56;5087827;28;20039;-59
2022/10/14 05:26:18;;;;;;;11.82;6.88;;;;;;;7.61;76.23;100285.69;5086458;28;20032;-58
2022/10/14 05:28:44;;;;;;;13.30;5.82;;;;;;;8.38;73.42;100286.34;5087885;28;20515;-58
2022/10/14 05:31:14;;;;;;;11.15;5.85;;;;;;;9.05;71.12;100287.81;5087611;28;20092;-59
2022/10/14 05:33:51;;;;;;;15.88;7.70;;;;;;;9.84;68.62;100290.53;5085385;28;20108;-58
2022/10/14 05:36:19;;;;;;;10.93;6.03;;;;;;;10.23;65.34;100292.25;5069817;28;20054;-59
2022/10/14 05:38:45;;;;;;;16.30;6.90;;;;;;;10.54;62.75;100282.84;5070083;28;20057;-59
2022/10/14 05:41:13;;;;;;;10.50;6.45;;;;;;;11.04;60.99;100288.50;5086211;28;20051;-57
2022/10/14 05:43:39;;;;;;;13.38;6.40;;;;;;;11.58;59.53;100288.72;5067129;28;20098;-58
2022/10/14 05:46:06;;;;;;;14.52;6.22;;;;;;;12.02;57.82;100283.97;5095470;28;20063;-58
2022/10/14 05:48:36;;;;;;;16.52;8.05;;;;;;;12.59;56.72;100286.50;5087981;28;20063;-60
2022/10/14 05:51:03;;;;;;;15.80;7.20;;;;;;;13.19;55.42;100291.41;5077498;28;20041;-59
2022/10/14 05:53:31;;;;;;;13.38;7.30;;;;;;;13.76;53.60;100288.47;5087797;28;20062;-57
2022/10/14 05:56:04;;;;;;;15.23;8.32;;;;;;;14.37;51.88;100284.31;5087176;28;20128;-58
2022/10/14 05:58:31;;;;;;;15.63;7.07;;;;;;;14.66;50.15;100240.41;5080754;28;20105;-56
2022/10/14 06:01:00;;;;;;;17.35;8.05;;;;;;;15.45;48.51;100287.56;5067581;28;20040;-59
2022/10/14 06:03:29;;;;;;;20.33;7.38;;;;;;;15.90;47.30;100282.03;5107451;28;20130;-59
2022/10/14 06:06:01;;;;;;;14.13;6.80;;;;;;;16.35;46.26;100270.25;5085870;28;20040;-59
2022/10/14 06:08:29;;;;;;;17.08;7.72;;;;;;;16.40;45.05;100242.88;5079908;28;20524;-59
2022/10/14 06:10:55;;;;;;;16.30;8.32;;;;;;;16.79;44.54;100257.59;5085222;28;20130;-57
2022/10/14 06:13:24;;;;;;;19.20;7.13;;;;;;;17.32;43.70;100289.00;5087896;28;20193;-56
2022/10/14 06:15:51;;;;;;;8.75;6.07;;;;;;;17.61;42.21;100254.13;5086913;28;20115;-58
2022/10/14 06:18:17;;;;;;;13.75;6.32;;;;;;;17.81;40.46;100268.81;5088049;28;20186;-57
2022/10/14 06:20:43;;;;;;;9.07;5.70;;;;;;;18.16;40.37;100286.13;5083968;28;20032;-53
2022/10/14 06:23:08;;;;;;;4.78;3.80;;;;;;;18.35;39.31;100257.00;5086572;28;20100;-57
2022/10/14 06:25:35;;;;;;;9.20;5.25;;;;;;;18.84;38.55;100283.19;5087555;28;20400;-57
2022/10/14 06:28:03;;;;;;;9.30;5.43;;;;;;;19.54;37.63;100282.44;5094877;28;20055;-57
2022/10/14 06:30:29;;;;;;;14.52;5.72;;;;;;;20.07;36.69;100270.28;5087045;28;20048;-56
2022/10/14 06:32:54;;;;;;;14.55;6.20;;;;;;;20.37;35.97;100260.41;5088657;28;20063;-57
2022/10/14 06:35:20;;;;;;;11.13;6.05;;;;;;;21.04;35.08;100292.94;5085489;28;20032;-59
2022/10/14 06:37:47;;;;;;;9.95;5.90;;;;;;;21.01;34.52;100299.28;5053849;28;20058;-57
2022/10/14 06:40:12;;;;;;;10.57;5.10;;;;;;;21.33;33.77;100293.63;5087953;28;20035;-59
2022/10/14 06:42:38;;;;;;;6.45;4.30;;;;;;;21.19;33.10;100268.13;5086899;28;20074;-58
2022/10/14 06:45:08;;;;;;;7.88;4.80;;;;;;;21.42;32.72;100293.81;5073240;28;20079;-59
2022/10/14 06:47:34;;;;;;;8.27;4.80;;;;;;;21.43;32.45;100292.03;5086147;28;20087;-52
2022/10/14 06:50:00;;;;;;;6.85;4.88;;;;;;;21.14;32.29;100288.75;5073791;28;20523;-56
2022/10/14 06:52:26;;;;;;;8.43;4.70;;;;;;;21.56;32.07;100291.03;5091712;28;20043;-55
2022/10/14 06:54:52;;;;;;;8.23;4.28;;;;;;;21.92;31.55;100245.25;5073141;28;20173;-57
2022/10/14 06:57:18;;;;;;;5.47;3.95;;;;;;;22.86;30.72;100285.13;5091946;28;20122;-53
2022/10/14 06:59:44;;;;;;;10.18;4.20;;;;;;;23.36;29.75;100285.72;5079677;28;20531;-56
2022/10/14 07:02:11;;;;;;;8.55;4.18;;;;;;;22.61;29.76;100293.22;5090402;28;20035;-54
2022/10/14 07:04:38;;;;;;;6.57;4.25;;;;;;;22.24;30.26;100295.06;5090157;28;20043;-60
2022/10/14 07:07:05;;;;;;;6.50;4.22;;;;;;;22.68;29.56;100303.22;5091477;28;20588;-58
2022/10/14 07:09:31;;;;;;;5.03;3.97;;;;;;;23.08;29.17;100301.09;5089980;28;20069;-55
2022/10/14 07:11:57;;;;;;;7.85;4.22;;;;;;;23.69;28.36;100296.38;5073456;28;20624;-55
2022/10/14 07:14:24;;;;;;;8.10;5.28;;;;;;;24.26;27.83;100306.84;5090404;28;20039;-54
2022/10/14 07:16:50;;;;;;;5.13;4.07;;;;;;;23.86;27.63;100303.88;5086833;28;20492;-53
2022/10/14 07:19:19;;;;;;;7.22;3.67;;;;;;;22.88;28.66;100293.81;5085907;28;20121;-54
2022/10/14 07:21:45;;;;;;;7.32;4.00;;;;;;;22.61;28.78;100299.34;5086508;28;20089;-53
2022/10/14 07:24:12;;;;;;;5.50;3.22;;;;;;;22.93;28.73;100301.41;5090558;28;20129;-55
2022/10/14 07:26:37;;;;;;;6.95;3.60;;;;;;;23.03;28.69;100294.47;5097246;28;20051;-53
2022/10/14 07:29:04;;;;;;;12.35;4.05;;;;;;;22.88;28.22;100283.19;5086622;28;20431;-53
2022/10/14 07:31:30;;;;;;;5.80;3.38;;;;;;;21.77;29.48;100299.28;5090396;28;20048;-53
2022/10/14 07:33:57;;;;;;;9.23;4.00;;;;;;;21.89;29.48;100303.72;5086009;28;20059;-52
2022/10/14 07:36:23;;;;;;;10.50;7.35;;;;;;;22.24;28.89;100295.06;5105493;28;20108;-52
2022/10/14 07:38:49;;;;;;;4.13;3.40;;;;;;;22.39;28.48;100292.16;5089098;28;20051;-55
2022/10/14 07:41:17;;;;;;;4.53;3.80;;;;;;;22.97;28.03;100293.13;5067230;28;20598;-52
2022/10/14 07:43:45;;;;;;;4.63;3.13;;;;;;;22.50;27.87;100286.06;5083339;28;20133;-55
2022/10/14 07:46:11;;;;;;;8.82;3.20;;;;;;;22.46;27.86;100275.78;5096625;28;20493;-55
2022/10/14 07:48:38;;;;;;;10.63;3.67;;;;;;;22.21;27.97;100252.91;5091192;28;20078;-54
2022/10/14 07:51:06;;;;;;;12.10;3.90;;;;;;;22.90;27.59;100283.94;5090082;28;20507;-56
2022/10/14 07:53:32;;;;;;;6.82;3.42;;;;;;;23.19;27.21;100284.34;5090322;28;20038;-54
2022/10/14 07:55:58;;;;;;;7.65;3.35;;;;;;;22.49;27.27;100287.00;5088394;28;20134;-56
2022/10/14 07:58:26;;;;;;;5.32;3.08;;;;;;;21.92;27.68;100282.31;5086318;28;20126;-56
2022/10/14 08:00:53;;;;;;;4.03;2.78;;;;;;;21.48;28.28;100285.47;5089916;28;20070;-51
2022/10/14 08:03:19;;;;;;;5.50;2.50;;;;;;;22.17;27.67;100273.47;5114135;27;20042;-58
2022/10/14 08:05:46;;;;;;;6.35;3.05;;;;;;;22.66;27.18;100277.81;5087309;28;20036;-54
2022/10/14 08:08:13;;;;;;;10.38;3.67;;;;;;;23.20;26.73;100244.44;5089956;28;20035;-55
2022/10/14 08:10:39;;;;;;;5.10;3.10;;;;;;;22.87;26.39;100247.06;5070964;28;20071;-56
2022/10/14 08:13:06;;;;;;;6.78;3.22;;;;;;;23.01;26.62;100281.31;5089793;28;20503;-52
2022/10/14 08:15:39;;;;;;;6.47;2.80;;;;;;;22.79;26.56;100275.94;5085102;28;20764;-55
2022/10/14 08:18:07;;;;;;;6.28;2.63;;;;;;;22.57;26.84;100276.66;5077255;28;20040;-53
2022/10/14 08:20:33;;;;;;;6.25;2.70;;;;;;;21.88;27.26;100232.31;5088659;28;20047;-54
2022/10/14 08:22:59;;;;;;;9.25;3.30;;;;;;;23.19;26.61;100276.41;5090499;28;20046;-53
2022/10/14 08:25:26;;;;;;;10.65;3.38;;;;;;;23.55;26.03;100246.19;5087777;28;20038;-53
2022/10/14 08:27:53;;;;;;;5.97;3.30;;;;;;;24.01;25.56;100277.88;5084204;28;20426;-58
2022/10/14 08:30:19;;;;;;;8.32;3.92;;;;;;;24.01;25.41;100280.53;5089534;28;20415;-54
2022/10/14 08:32:45;;;;;;;6.38;3.42;;;;;;;22.31;26.55;100240.66;5089644;28;20078;-55
2022/10/14 08:35:12;;;;;;;7.13;2.92;;;;;;;22.85;26.79;100278.13;5070122;28;20498;-51
2022/10/14 08:37:38;;;;;;;9.05;3.45;;;;;;;23.33;26.12;100268.22;5085861;28;20109;-55
2022/10/14 08:40:07;;;;;;;;;;;;;;;23.99;25.72;100267.38;5089742;28;20046;-56
2022/10/14 08:42:58;;;;;;;5.28;3.10;;;;;;;24.44;24.95;100261.97;5071818;28;19969;-51
2022/10/14 08:45:34;;;;;;;5.60;3.40;;;;;;;25.10;24.34;100241.31;5075343;28;20469;-53
2022/10/14 08:48:03;;;;;;;5.78;3.50;;;;;;;25.71;23.90;100274.16;5101190;27;20093;-56
2022/10/14 08:50:37;;;;;;;5.30;3.35;;;;;;;26.46;23.38;100266.50;5087196;28;20040;-53
2022/10/14 08:53:05;;;;;;;6.10;3.33;;;;;;;27.06;22.53;100269.81;5069104;28;20790;-56
2022/10/14 08:55:46;;;;;;;4.03;2.70;;;;;;;27.31;22.09;100263.88;5087023;28;20425;-54
2022/10/14 08:58:18;;;;;;;5.55;2.50;;;;;;;27.63;21.62;100260.84;5068282;28;20040;-55
2022/10/14 09:00:47;;;;;;;3.70;2.70;;;;;;;27.74;21.45;100257.13;5088087;28;20039;-53
2022/10/14 09:03:23;;;;;;;5.60;3.17;;;;;;;28.05;21.33;100258.50;5088688;28;20048;-57
2022/10/14 09:05:59;;;;;;;5.97;3.20;;;;;;;28.46;20.97;100259.78;5088458;28;20056;-59
2022/10/14 09:08:50;;;;;;;6.93;2.95;;;;;;;28.74;20.62;100246.31;5089033;28;20035;-56
2022/10/14 09:11:18;;;;;;;6.00;3.00;;;;;;;28.90;20.69;100254.47;5089550;28;20046;-57
2022/10/14 09:13:46;;;;;;;;;;;;;;;29.18;20.63;100253.31;5088968;28;20067;-56
2022/10/14 09:16:16;;;;;;;4.50;2.20;;;;;;;28.74;20.52;100254.34;5073577;28;19939;-58
2022/10/14 09:18:54;;;;;;;4.15;2.17;;;;;;;28.42;21.26;100245.00;5088340;28;20048;-57
2022/10/14 09:21:33;;;;;;;4.82;1.98;;;;;;;28.50;21.26;100255.78;5084632;28;20047;-56
2022/10/14 09:24:21;;;;;;;2.10;1.40;;;;;;;28.17;21.66;100251.09;5082331;28;20511;-54
2022/10/14 09:27:07;;;;;;;3.50;2.40;;;;;;;27.14;22.94;100237.91;5075792;28;20507;-57
2022/10/14 09:30:01;;;;;;;5.85;2.05;;;;;;;27.09;23.32;100239.34;5087237;28;20556;-53
2022/10/14 09:32:30;;;;;;;3.35;1.73;;;;;;;26.25;24.00;100217.78;5083890;28;20047;-56
2022/10/14 09:34:57;;;;;;;2.03;1.70;;;;;;;26.80;23.46;100229.53;5085938;28;20519;-53
2022/10/14 09:37:34;;;;;;;3.15;1.58;;;;;;;26.69;23.83;100242.19;5077894;28;20101;-53
2022/10/14 09:40:10;;;;;;;2.80;1.83;;;;;;;26.74;23.81;100235.47;5082491;28;20042;-54
2022/10/14 09:42:58;;;;;;;4.40;2.33;;;;;;;27.36;23.43;100234.06;5080156;28;20086;-56
2022/10/14 09:45:24;;;;;;;4.80;2.60;;;;;;;27.94;23.04;100241.81;5090376;28;20051;-57
2022/10/14 09:48:06;;;;;;;3.45;2.22;;;;;;;27.18;23.51;100236.63;5054473;28;20036;-57
2022/10/14 09:50:42;;;;;;;3.03;1.90;;;;;;;28.27;22.84;100233.16;5088946;28;20040;-55
2022/10/14 09:53:26;;;;;;;2.85;1.85;;;;;;;28.27;23.02;100235.00;5086772;28;20093;-55
2022/10/14 09:55:55;;;;;;;3.25;2.33;;;;;;;28.56;22.51;100233.78;5088234;28;20032;-54
2022/10/14 09:58:39;;;;;;;4.68;2.70;;;;;;;28.59;22.38;100225.44;5082703;28;20050;-56
2022/10/14 10:01:11;;;;;;;5.32;2.72;;;;;;;29.10;22.03;100228.34;5084722;28;20131;-58
2022/10/14 10:03:39;;;;;;;4.13;2.30;;;;;;;28.64;22.58;100224.97;5086925;28;20493;-58
2022/10/14 10:06:10;;;;;;;3.80;2.60;;;;;;;28.65;22.58;100203.41;5088247;28;20051;-57
2022/10/14 10:08:41;;;;;;;4.47;3.25;;;;;;;27.58;23.47;100225.69;5083625;28;20143;-57
2022/10/14 10:11:12;;;;;;;6.85;3.20;;;;;;;27.92;23.43;100228.59;5069681;28;20059;-56
2022/10/14 10:13:43;;;;;;;6.05;2.97;;;;;;;28.98;22.41;100227.75;5087181;28;20089;-54
2022/10/14 10:16:30;;;;;;;6.90;3.10;;;;;;;27.42;23.32;100230.81;5083604;28;20043;-52
2022/10/14 10:18:56;;;;;;;4.88;3.30;;;;;;;28.09;23.02;100226.94;5087470;28;20035;-53
2022/10/14 10:21:25;;;;;;;5.90;3.38;;;;;;;28.62;22.61;100235.00;5089429;28;20404;-54
2022/10/14 10:23:54;;;;;;;5.63;2.88;;;;;;;28.05;22.69;100210.38;5089827;28;20044;-55
2022/10/14 10:26:28;;;;;;;4.03;3.20;;;;;;;27.33;23.50;100232.50;5087766;28;20089;-54
2022/10/14 10:28:56;;;;;;;3.90;3.13;;;;;;;26.31;24.81;100237.72;5091428;28;20047;-54
2022/10/14 10:31:25;;;;;;;4.40;3.17;;;;;;;26.03;24.88;100236.66;5091296;28;20048;-57
2022/10/14 10:34:03;;;;;;;6.30;3.75;;;;;;;25.91;25.19;100229.78;5090904;28;20043;-56
2022/10/14 10:36:30;;;;;;;;;;;;;;;27.01;24.35;100233.91;5086820;28;20043;-59
2022/10/14 10:39:11;;;;;;;8.27;3.95;;;;;;;26.25;25.00;100224.94;5089408;28;20026;-55
2022/10/14 10:41:52;;;;;;;7.68;3.45;;;;;;;26.79;24.55;100232.34;5089096;28;20130;-54
2022/10/14 10:45:03;;;;;;;8.20;3.20;;;;;;;26.57;24.59;100230.84;5086735;28;20129;-56
2022/10/14 10:47:46;;;;;;;7.90;3.65;;;;;;;26.06;25.18;100210.59;5091549;28;20046;-56
2022/10/14 10:50:47;;;;;;;4.80;3.55;;;;;;;26.79;24.67;100227.03;5091450;28;20043;-55
2022/10/14 10:53:29;;;;;;;5.30;3.90;;;;;;;26.81;24.60;100227.69;5052822;28;20045;-53
2022/10/14 10:56:21;;;;;;;6.32;3.65;;;;;;;27.18;23.95;100233.13;5065861;28;20135;-54
2022/10/14 10:58:55;;;;;;;6.13;4.10;;;;;;;25.97;25.39;100226.53;5075651;28;20102;-54
2022/10/14 11:01:30;;;;;;;4.68;4.18;;;;;;;26.26;24.92;100227.47;5092030;28;20036;-53
2022/10/14 11:04:26;;;;;;;7.50;4.55;;;;;;;26.12;24.90;100225.16;5091216;28;20606;-54
2022/10/14 11:12:59;;;;;;;8.10;5.10;;;;;;;24.77;26.96;100216.59;5091188;28;20519;-54
2022/10/14 11:15:28;;;;;;;6.13;5.00;;;;;;;25.51;26.36;100227.09;5087893;28;20503;-55
2022/10/14 11:18:08;;;;;;;7.57;4.72;;;;;;;24.61;27.09;100228.63;5073412;28;20928;-55
2022/10/14 11:20:59;;;;;;;11.18;5.00;;;;;;;23.00;28.92;100221.28;5088859;28;20058;-55
2022/10/14 11:23:47;;;;;;;8.88;5.13;;;;;;;20.94;31.52;100209.88;5088888;28;20040;-55
2022/10/14 11:26:31;;;;;;;8.20;5.20;;;;;;;20.11;33.12;100216.34;5088493;28;20462;-55
2022/10/14 11:29:25;;;;;;;6.28;4.70;;;;;;;20.90;31.97;100221.63;5091455;28;20039;-56
2022/10/14 11:32:13;;;;;;;6.47;4.47;;;;;;;22.14;30.58;100220.72;5088340;28;20069;-56
2022/10/14 11:34:39;;;;;;;6.10;4.60;;;;;;;23.32;28.88;100205.50;5089885;28;20040;-56
2022/10/14 11:37:24;;;;;;;5.95;4.90;;;;;;;21.98;30.07;100211.38;5090707;28;20529;-58
2022/10/14 11:39:58;;;;;;;9.93;5.30;;;;;;;19.68;33.48;100207.72;5070975;28;20074;-58
2022/10/14 11:42:37;;;;;;;9.80;5.20;;;;;;;18.77;35.07;100219.47;5073336;28;20058;-56
2022/10/14 11:45:15;;;;;;;8.80;5.18;;;;;;;18.17;35.98;100208.03;5090175;28;20040;-56
2022/10/14 11:47:45;;;;;;;18.45;5.53;;;;;;;17.30;37.64;100207.59;5091172;28;20044;-58
2022/10/14 11:50:22;;;;;;;;;;;;;;;16.47;38.96;100215.41;5089583;28;20499;-56
2022/10/14 11:53:37;;;;;;;8.73;4.25;;;;;;;15.45;41.02;100208.09;5089461;28;19961;-56
2022/10/14 11:56:15;;;;;;;12.15;5.53;;;;;;;14.59;42.92;100202.34;5067583;28;20050;-53